sensor_id;sensor_type;location;lat;lon;timestamp;P1;durP1;ratioP1;P2;durP2;ratioP2
1154;SDS011;566;48.414;9.118;2023-05-07T00:02:24;4.60;;;2.60;;
1154;SDS011;566;48.414;9.118;2023-05-07T00:04:50;6.03;;;2.97;;
1154;SDS011;566;48.414;9.118;2023-05-07T00:07:16;5.25;;;3.13;;
1154;SDS011;566;48.414;9.118;2023-05-07T00:09:42;7.22;;;3.15;;
1154;SDS011;566;48.414;9.118;2023-05-07T00:12:08;6.75;;;3.08;;
1154;SDS011;566;48.414;9.118;2023-05-07T00:14:33;5.57;;;3.25;;
1154;SDS011;566;48.414;9.118;2023-05-07T00:16:59;5.72;;;3.20;;
1154;SDS011;566;48.414;9.118;2023-05-07T00:19:24;7.45;;;3.13;;
1154;SDS011;566;48.414;9.118;2023-05-07T00:21:50;6.15;;;3.22;;
1154;SDS011;566;48.414;9.118;2023-05-07T00:24:18;5.85;;;2.95;;
1154;SDS011;566;48.414;9.118;2023-05-07T00:26:43;7.60;;;3.08;;
1154;SDS011;566;48.414;9.118;2023-05-07T00:29:09;6.82;;;3.10;;
1154;SDS011;566;48.414;9.118;2023-05-07T00:31:35;7.00;;;2.90;;
1154;SDS011;566;48.414;9.118;2023-05-07T00:34:00;6.68;;;3.20;;
1154;SDS011;566;48.414;9.118;2023-05-07T00:36:28;5.38;;;3.08;;
1154;SDS011;566;48.414;9.118;2023-05-07T00:38:54;5.90;;;3.30;;
1154;SDS011;566;48.414;9.118;2023-05-07T00:41:22;6.78;;;3.47;;
1154;SDS011;566;48.414;9.118;2023-05-07T00:43:47;4.97;;;2.72;;
1154;SDS011;566;48.414;9.118;2023-05-07T00:46:13;6.43;;;3.60;;
1154;SDS011;566;48.414;9.118;2023-05-07T00:48:40;6.55;;;2.60;;
1154;SDS011;566;48.414;9.118;2023-05-07T00:51:06;4.95;;;2.90;;
1154;SDS011;566;48.414;9.118;2023-05-07T00:53:32;6.57;;;3.30;;
1154;SDS011;566;48.414;9.118;2023-05-07T00:55:57;5.72;;;3.30;;
1154;SDS011;566;48.414;9.118;2023-05-07T00:58:23;5.57;;;2.88;;
1154;SDS011;566;48.414;9.118;2023-05-07T01:00:49;4.82;;;3.00;;
1154;SDS011;566;48.414;9.118;2023-05-07T01:03:15;5.95;;;3.38;;
1154;SDS011;566;48.414;9.118;2023-05-07T01:05:41;7.57;;;3.58;;
1154;SDS011;566;48.414;9.118;2023-05-07T01:08:08;7.57;;;3.00;;
1154;SDS011;566;48.414;9.118;2023-05-07T01:10:35;5.03;;;3.08;;
1154;SDS011;566;48.414;9.118;2023-05-07T01:13:01;6.28;;;3.40;;
1154;SDS011;566;48.414;9.118;2023-05-07T01:15:27;6.88;;;2.92;;
1154;SDS011;566;48.414;9.118;2023-05-07T01:17:52;8.48;;;3.08;;
1154;SDS011;566;48.414;9.118;2023-05-07T01:20:18;5.47;;;3.10;;
1154;SDS011;566;48.414;9.118;2023-05-07T01:22:44;6.70;;;3.42;;
1154;SDS011;566;48.414;9.118;2023-05-07T01:25:10;4.45;;;2.97;;
1154;SDS011;566;48.414;9.118;2023-05-07T01:27:36;6.90;;;3.10;;
1154;SDS011;566;48.414;9.118;2023-05-07T01:30:05;4.82;;;2.83;;
1154;SDS011;566;48.414;9.118;2023-05-07T01:35:39;6.50;;;3.30;;
1154;SDS011;566;48.414;9.118;2023-05-07T01:38:08;5.85;;;3.17;;
1154;SDS011;566;48.414;9.118;2023-05-07T01:40:34;6.30;;;3.47;;
1154;SDS011;566;48.414;9.118;2023-05-07T01:43:00;5.20;;;3.22;;
1154;SDS011;566;48.414;9.118;2023-05-07T01:45:27;5.32;;;3.30;;
1154;SDS011;566;48.414;9.118;2023-05-07T01:47:54;6.03;;;3.42;;
1154;SDS011;566;48.414;9.118;2023-05-07T01:50:21;7.25;;;4.05;;
1154;SDS011;566;48.414;9.118;2023-05-07T01:52:46;7.43;;;3.85;;
1154;SDS011;566;48.414;9.118;2023-05-07T01:55:15;5.95;;;3.42;;
1154;SDS011;566;48.414;9.118;2023-05-07T01:57:40;7.30;;;3.88;;
1154;SDS011;566;48.414;9.118;2023-05-07T02:00:06;7.03;;;3.75;;
1154;SDS011;566;48.414;9.118;2023-05-07T02:02:33;7.80;;;3.88;;
1154;SDS011;566;48.414;9.118;2023-05-07T02:04:59;6.00;;;3.60;;
1154;SDS011;566;48.414;9.118;2023-05-07T02:07:25;8.73;;;3.70;;
1154;SDS011;566;48.414;9.118;2023-05-07T02:09:51;5.20;;;3.13;;
1154;SDS011;566;48.414;9.118;2023-05-07T02:12:17;8.98;;;3.72;;
1154;SDS011;566;48.414;9.118;2023-05-07T02:14:42;6.38;;;3.90;;
1154;SDS011;566;48.414;9.118;2023-05-07T02:17:08;6.97;;;3.83;;
1154;SDS011;566;48.414;9.118;2023-05-07T02:19:33;6.90;;;3.67;;
1154;SDS011;566;48.414;9.118;2023-05-07T02:21:59;6.53;;;3.83;;
1154;SDS011;566;48.414;9.118;2023-05-07T02:24:24;5.97;;;3.65;;
1154;SDS011;566;48.414;9.118;2023-05-07T02:26:50;6.68;;;4.20;;
1154;SDS011;566;48.414;9.118;2023-05-07T02:29:15;8.35;;;4.43;;
1154;SDS011;566;48.414;9.118;2023-05-07T02:31:41;7.88;;;4.22;;
1154;SDS011;566;48.414;9.118;2023-05-07T02:34:06;5.43;;;3.83;;
1154;SDS011;566;48.414;9.118;2023-05-07T02:36:32;6.57;;;4.20;;
1154;SDS011;566;48.414;9.118;2023-05-07T02:38:57;5.90;;;3.90;;
1154;SDS011;566;48.414;9.118;2023-05-07T02:41:23;8.90;;;4.43;;
1154;SDS011;566;48.414;9.118;2023-05-07T02:43:48;7.25;;;4.07;;
1154;SDS011;566;48.414;9.118;2023-05-07T02:46:14;6.50;;;3.80;;
1154;SDS011;566;48.414;9.118;2023-05-07T02:48:40;5.55;;;3.90;;
1154;SDS011;566;48.414;9.118;2023-05-07T02:51:06;5.38;;;3.75;;
1154;SDS011;566;48.414;9.118;2023-05-07T02:53:31;6.22;;;4.13;;
1154;SDS011;566;48.414;9.118;2023-05-07T02:55:58;8.73;;;3.90;;
1154;SDS011;566;48.414;9.118;2023-05-07T02:58:24;7.82;;;3.90;;
1154;SDS011;566;48.414;9.118;2023-05-07T03:00:50;7.28;;;4.40;;
1154;SDS011;566;48.414;9.118;2023-05-07T03:03:17;7.80;;;4.70;;
1154;SDS011;566;48.414;9.118;2023-05-07T03:05:42;7.53;;;4.70;;
1154;SDS011;566;48.414;9.118;2023-05-07T03:08:08;7.75;;;3.90;;
1154;SDS011;566;48.414;9.118;2023-05-07T03:10:35;8.63;;;4.50;;
1154;SDS011;566;48.414;9.118;2023-05-07T03:13:02;7.80;;;4.63;;
1154;SDS011;566;48.414;9.118;2023-05-07T03:15:27;6.68;;;4.57;;
1154;SDS011;566;48.414;9.118;2023-05-07T03:17:53;8.20;;;4.47;;
1154;SDS011;566;48.414;9.118;2023-05-07T03:20:19;8.95;;;4.70;;
1154;SDS011;566;48.414;9.118;2023-05-07T03:22:44;7.13;;;4.57;;
1154;SDS011;566;48.414;9.118;2023-05-07T03:25:10;8.52;;;4.90;;
1154;SDS011;566;48.414;9.118;2023-05-07T03:27:36;7.13;;;4.53;;
1154;SDS011;566;48.414;9.118;2023-05-07T03:30:02;9.07;;;5.30;;
1154;SDS011;566;48.414;9.118;2023-05-07T03:32:27;9.32;;;5.20;;
1154;SDS011;566;48.414;9.118;2023-05-07T03:34:53;7.70;;;5.53;;
1154;SDS011;566;48.414;9.118;2023-05-07T03:37:18;7.35;;;4.80;;
1154;SDS011;566;48.414;9.118;2023-05-07T03:39:44;6.60;;;4.90;;
1154;SDS011;566;48.414;9.118;2023-05-07T03:42:10;6.45;;;4.80;;
1154;SDS011;566;48.414;9.118;2023-05-07T03:44:35;8.15;;;5.22;;
1154;SDS011;566;48.414;9.118;2023-05-07T03:47:01;8.13;;;5.38;;
1154;SDS011;566;48.414;9.118;2023-05-07T03:49:27;8.43;;;5.53;;
1154;SDS011;566;48.414;9.118;2023-05-07T03:51:53;8.13;;;5.75;;
1154;SDS011;566;48.414;9.118;2023-05-07T03:54:18;10.18;;;5.70;;
1154;SDS011;566;48.414;9.118;2023-05-07T03:56:44;8.85;;;5.50;;
1154;SDS011;566;48.414;9.118;2023-05-07T03:59:10;12.32;;;6.57;;
1154;SDS011;566;48.414;9.118;2023-05-07T04:01:35;7.47;;;5.20;;
1154;SDS011;566;48.414;9.118;2023-05-07T04:04:01;8.63;;;4.63;;
1154;SDS011;566;48.414;9.118;2023-05-07T04:06:28;9.18;;;5.97;;
1154;SDS011;566;48.414;9.118;2023-05-07T04:08:53;9.38;;;5.20;;
1154;SDS011;566;48.414;9.118;2023-05-07T04:11:19;9.02;;;5.55;;
1154;SDS011;566;48.414;9.118;2023-05-07T04:13:45;6.68;;;4.88;;
1154;SDS011;566;48.414;9.118;2023-05-07T04:16:10;7.25;;;6.07;;
1154;SDS011;566;48.414;9.118;2023-05-07T04:18:36;11.02;;;6.30;;
1154;SDS011;566;48.414;9.118;2023-05-07T04:21:01;8.20;;;6.38;;
1154;SDS011;566;48.414;9.118;2023-05-07T04:23:27;10.13;;;5.75;;
1154;SDS011;566;48.414;9.118;2023-05-07T04:25:53;9.27;;;5.63;;
1154;SDS011;566;48.414;9.118;2023-05-07T04:28:19;11.95;;;7.85;;
1154;SDS011;566;48.414;9.118;2023-05-07T04:30:45;12.13;;;8.00;;
1154;SDS011;566;48.414;9.118;2023-05-07T04:33:11;14.73;;;9.60;;
1154;SDS011;566;48.414;9.118;2023-05-07T04:35:42;17.13;;;11.68;;
1154;SDS011;566;48.414;9.118;2023-05-07T04:38:08;11.18;;;8.18;;
1154;SDS011;566;48.414;9.118;2023-05-07T04:40:35;14.27;;;8.40;;
1154;SDS011;566;48.414;9.118;2023-05-07T04:43:01;12.88;;;8.48;;
1154;SDS011;566;48.414;9.118;2023-05-07T04:45:26;19.02;;;12.32;;
1154;SDS011;566;48.414;9.118;2023-05-07T04:47:52;21.65;;;14.02;;
1154;SDS011;566;48.414;9.118;2023-05-07T04:50:17;21.83;;;14.27;;
1154;SDS011;566;48.414;9.118;2023-05-07T04:52:44;20.23;;;12.75;;
1154;SDS011;566;48.414;9.118;2023-05-07T04:55:10;18.38;;;12.30;;
1154;SDS011;566;48.414;9.118;2023-05-07T04:57:35;18.27;;;12.27;;
1154;SDS011;566;48.414;9.118;2023-05-07T05:00:02;18.50;;;11.52;;
1154;SDS011;566;48.414;9.118;2023-05-07T05:02:33;13.98;;;9.30;;
1154;SDS011;566;48.414;9.118;2023-05-07T05:04:58;17.27;;;9.63;;
1154;SDS011;566;48.414;9.118;2023-05-07T05:07:24;11.68;;;7.63;;
1154;SDS011;566;48.414;9.118;2023-05-07T05:09:50;13.25;;;8.68;;
1154;SDS011;566;48.414;9.118;2023-05-07T05:12:15;10.65;;;7.25;;
1154;SDS011;566;48.414;9.118;2023-05-07T05:14:41;12.95;;;8.77;;
1154;SDS011;566;48.414;9.118;2023-05-07T05:17:07;9.27;;;6.95;;
1154;SDS011;566;48.414;9.118;2023-05-07T05:19:33;9.70;;;6.57;;
1154;SDS011;566;48.414;9.118;2023-05-07T05:21:58;9.00;;;6.38;;
1154;SDS011;566;48.414;9.118;2023-05-07T05:24:28;9.68;;;6.57;;
1154;SDS011;566;48.414;9.118;2023-05-07T05:26:55;10.40;;;6.32;;
1154;SDS011;566;48.414;9.118;2023-05-07T05:29:20;9.32;;;5.80;;
1154;SDS011;566;48.414;9.118;2023-05-07T05:31:46;9.32;;;5.57;;
1154;SDS011;566;48.414;9.118;2023-05-07T05:34:11;9.23;;;5.38;;
1154;SDS011;566;48.414;9.118;2023-05-07T05:36:37;8.88;;;5.38;;
1154;SDS011;566;48.414;9.118;2023-05-07T05:39:02;8.25;;;5.20;;
1154;SDS011;566;48.414;9.118;2023-05-07T05:41:28;9.07;;;5.50;;
1154;SDS011;566;48.414;9.118;2023-05-07T05:43:54;13.98;;;5.40;;
1154;SDS011;566;48.414;9.118;2023-05-07T05:46:20;7.40;;;4.82;;
1154;SDS011;566;48.414;9.118;2023-05-07T05:48:45;7.32;;;4.95;;
1154;SDS011;566;48.414;9.118;2023-05-07T05:51:14;9.30;;;5.05;;
1154;SDS011;566;48.414;9.118;2023-05-07T05:53:39;7.93;;;4.50;;
1154;SDS011;566;48.414;9.118;2023-05-07T05:56:05;9.68;;;4.60;;
1154;SDS011;566;48.414;9.118;2023-05-07T05:58:31;7.00;;;4.00;;
1154;SDS011;566;48.414;9.118;2023-05-07T06:00:57;6.93;;;3.80;;
1154;SDS011;566;48.414;9.118;2023-05-07T06:03:23;7.32;;;4.35;;
1154;SDS011;566;48.414;9.118;2023-05-07T06:05:49;8.02;;;4.07;;
1154;SDS011;566;48.414;9.118;2023-05-07T06:08:15;6.88;;;4.80;;
1154;SDS011;566;48.414;9.118;2023-05-07T06:10:40;7.78;;;4.55;;
1154;SDS011;566;48.414;9.118;2023-05-07T06:13:06;8.27;;;4.88;;
1154;SDS011;566;48.414;9.118;2023-05-07T06:15:32;6.38;;;4.28;;
1154;SDS011;566;48.414;9.118;2023-05-07T06:17:58;8.20;;;4.53;;
1154;SDS011;566;48.414;9.118;2023-05-07T06:20:23;5.55;;;3.90;;
1154;SDS011;566;48.414;9.118;2023-05-07T06:22:49;8.48;;;3.80;;
1154;SDS011;566;48.414;9.118;2023-05-07T06:25:14;6.25;;;3.90;;
1154;SDS011;566;48.414;9.118;2023-05-07T06:27:40;7.55;;;3.90;;
1154;SDS011;566;48.414;9.118;2023-05-07T06:30:08;8.68;;;4.18;;
1154;SDS011;566;48.414;9.118;2023-05-07T06:32:34;15.32;;;4.32;;
1154;SDS011;566;48.414;9.118;2023-05-07T06:34:59;5.82;;;3.80;;
1154;SDS011;566;48.414;9.118;2023-05-07T06:37:25;8.35;;;4.57;;
1154;SDS011;566;48.414;9.118;2023-05-07T06:39:50;9.00;;;4.07;;
1154;SDS011;566;48.414;9.118;2023-05-07T06:42:16;5.13;;;3.60;;
1154;SDS011;566;48.414;9.118;2023-05-07T06:44:41;6.10;;;3.90;;
1154;SDS011;566;48.414;9.118;2023-05-07T06:47:07;8.07;;;3.78;;
1154;SDS011;566;48.414;9.118;2023-05-07T06:49:32;6.13;;;3.80;;
1154;SDS011;566;48.414;9.118;2023-05-07T06:51:58;9.00;;;3.63;;
1154;SDS011;566;48.414;9.118;2023-05-07T06:54:24;6.03;;;3.38;;
1154;SDS011;566;48.414;9.118;2023-05-07T06:56:49;5.82;;;3.60;;
1154;SDS011;566;48.414;9.118;2023-05-07T06:59:15;8.98;;;4.65;;
1154;SDS011;566;48.414;9.118;2023-05-07T07:01:40;6.00;;;3.90;;
1154;SDS011;566;48.414;9.118;2023-05-07T07:04:06;7.38;;;4.05;;
1154;SDS011;566;48.414;9.118;2023-05-07T07:06:32;6.57;;;4.00;;
1154;SDS011;566;48.414;9.118;2023-05-07T07:08:58;6.28;;;4.10;;
1154;SDS011;566;48.414;9.118;2023-05-07T07:11:24;6.80;;;4.20;;
1154;SDS011;566;48.414;9.118;2023-05-07T07:13:50;6.47;;;3.80;;
1154;SDS011;566;48.414;9.118;2023-05-07T07:16:15;5.20;;;3.70;;
1154;SDS011;566;48.414;9.118;2023-05-07T07:18:41;4.80;;;3.40;;
1154;SDS011;566;48.414;9.118;2023-05-07T07:21:07;5.18;;;3.45;;
1154;SDS011;566;48.414;9.118;2023-05-07T07:23:32;5.55;;;3.10;;
1154;SDS011;566;48.414;9.118;2023-05-07T07:25:58;7.38;;;3.47;;
1154;SDS011;566;48.414;9.118;2023-05-07T07:28:23;5.80;;;3.05;;
1154;SDS011;566;48.414;9.118;2023-05-07T07:30:49;6.72;;;3.22;;
1154;SDS011;566;48.414;9.118;2023-05-07T07:33:15;7.43;;;3.50;;
1154;SDS011;566;48.414;9.118;2023-05-07T07:35:40;5.70;;;3.13;;
1154;SDS011;566;48.414;9.118;2023-05-07T07:38:09;7.47;;;3.47;;
1154;SDS011;566;48.414;9.118;2023-05-07T07:40:35;5.95;;;2.80;;
1154;SDS011;566;48.414;9.118;2023-05-07T07:43:00;8.10;;;2.85;;
1154;SDS011;566;48.414;9.118;2023-05-07T07:45:26;9.10;;;3.53;;
1154;SDS011;566;48.414;9.118;2023-05-07T07:47:52;5.10;;;2.40;;
1154;SDS011;566;48.414;9.118;2023-05-07T07:50:17;4.22;;;2.63;;
1154;SDS011;566;48.414;9.118;2023-05-07T07:52:43;5.97;;;2.50;;
1154;SDS011;566;48.414;9.118;2023-05-07T07:55:09;4.15;;;2.30;;
1154;SDS011;566;48.414;9.118;2023-05-07T07:57:35;5.97;;;2.40;;
1154;SDS011;566;48.414;9.118;2023-05-07T08:00:01;5.93;;;2.83;;
1154;SDS011;566;48.414;9.118;2023-05-07T08:02:27;5.30;;;3.13;;
1154;SDS011;566;48.414;9.118;2023-05-07T08:04:55;4.78;;;2.38;;
1154;SDS011;566;48.414;9.118;2023-05-07T08:07:24;5.18;;;2.50;;
1154;SDS011;566;48.414;9.118;2023-05-07T08:09:55;4.43;;;2.15;;
1154;SDS011;566;48.414;9.118;2023-05-07T08:12:23;3.90;;;2.05;;
1154;SDS011;566;48.414;9.118;2023-05-07T08:14:52;3.78;;;2.00;;
1154;SDS011;566;48.414;9.118;2023-05-07T08:17:18;4.78;;;1.77;;
1154;SDS011;566;48.414;9.118;2023-05-07T08:19:47;3.78;;;2.00;;
1154;SDS011;566;48.414;9.118;2023-05-07T08:22:13;3.80;;;1.98;;
1154;SDS011;566;48.414;9.118;2023-05-07T08:24:39;4.05;;;1.67;;
1154;SDS011;566;48.414;9.118;2023-05-07T08:27:16;5.03;;;1.90;;
1154;SDS011;566;48.414;9.118;2023-05-07T08:29:42;6.30;;;1.92;;
1154;SDS011;566;48.414;9.118;2023-05-07T08:32:07;4.32;;;2.10;;
1154;SDS011;566;48.414;9.118;2023-05-07T08:34:33;8.10;;;2.10;;
1154;SDS011;566;48.414;9.118;2023-05-07T08:36:58;5.15;;;2.10;;
1154;SDS011;566;48.414;9.118;2023-05-07T08:39:24;5.10;;;2.38;;
1154;SDS011;566;48.414;9.118;2023-05-07T08:41:49;6.05;;;2.10;;
1154;SDS011;566;48.414;9.118;2023-05-07T08:44:19;4.97;;;2.60;;
1154;SDS011;566;48.414;9.118;2023-05-07T08:46:47;3.95;;;2.30;;
1154;SDS011;566;48.414;9.118;2023-05-07T08:49:16;6.60;;;2.88;;
1154;SDS011;566;48.414;9.118;2023-05-07T08:51:42;5.22;;;3.30;;
1154;SDS011;566;48.414;9.118;2023-05-07T08:54:08;6.45;;;2.72;;
1154;SDS011;566;48.414;9.118;2023-05-07T08:56:35;7.13;;;3.13;;
1154;SDS011;566;48.414;9.118;2023-05-07T08:59:01;7.30;;;3.50;;
1154;SDS011;566;48.414;9.118;2023-05-07T09:01:26;6.13;;;2.97;;
1154;SDS011;566;48.414;9.118;2023-05-07T09:03:52;4.78;;;2.65;;
1154;SDS011;566;48.414;9.118;2023-05-07T09:06:18;6.38;;;3.20;;
1154;SDS011;566;48.414;9.118;2023-05-07T09:08:50;6.38;;;3.10;;
1154;SDS011;566;48.414;9.118;2023-05-07T09:11:19;6.87;;;2.90;;
1154;SDS011;566;48.414;9.118;2023-05-07T09:13:46;7.35;;;2.20;;
1154;SDS011;566;48.414;9.118;2023-05-07T09:16:11;5.22;;;2.83;;
1154;SDS011;566;48.414;9.118;2023-05-07T09:18:44;5.10;;;2.80;;
1154;SDS011;566;48.414;9.118;2023-05-07T09:21:10;5.47;;;2.55;;
1154;SDS011;566;48.414;9.118;2023-05-07T09:23:39;7.78;;;2.70;;
1154;SDS011;566;48.414;9.118;2023-05-07T09:26:05;6.03;;;2.65;;
1154;SDS011;566;48.414;9.118;2023-05-07T09:28:37;8.93;;;3.00;;
1154;SDS011;566;48.414;9.118;2023-05-07T09:31:04;8.90;;;3.13;;
1154;SDS011;566;48.414;9.118;2023-05-07T09:33:29;7.50;;;3.33;;
1154;SDS011;566;48.414;9.118;2023-05-07T09:35:55;5.78;;;2.80;;
1154;SDS011;566;48.414;9.118;2023-05-07T09:38:21;5.88;;;2.92;;
1154;SDS011;566;48.414;9.118;2023-05-07T09:40:46;7.82;;;2.75;;
1154;SDS011;566;48.414;9.118;2023-05-07T09:43:13;4.53;;;2.50;;
1154;SDS011;566;48.414;9.118;2023-05-07T09:45:38;5.55;;;2.80;;
1154;SDS011;566;48.414;9.118;2023-05-07T09:48:04;8.80;;;2.97;;
1154;SDS011;566;48.414;9.118;2023-05-07T09:50:41;5.38;;;2.55;;
1154;SDS011;566;48.414;9.118;2023-05-07T09:53:13;8.80;;;3.13;;
1154;SDS011;566;48.414;9.118;2023-05-07T09:55:40;6.60;;;3.08;;
1154;SDS011;566;48.414;9.118;2023-05-07T09:58:07;7.38;;;2.97;;
1154;SDS011;566;48.414;9.118;2023-05-07T10:00:34;6.10;;;3.00;;
1154;SDS011;566;48.414;9.118;2023-05-07T10:03:00;4.57;;;2.63;;
1154;SDS011;566;48.414;9.118;2023-05-07T10:05:27;5.93;;;2.88;;
1154;SDS011;566;48.414;9.118;2023-05-07T10:07:54;5.53;;;2.72;;
1154;SDS011;566;48.414;9.118;2023-05-07T10:10:20;7.43;;;2.90;;
1154;SDS011;566;48.414;9.118;2023-05-07T10:12:47;5.50;;;2.80;;
1154;SDS011;566;48.414;9.118;2023-05-07T10:15:13;6.05;;;2.95;;
1154;SDS011;566;48.414;9.118;2023-05-07T10:17:40;6.43;;;2.90;;
1154;SDS011;566;48.414;9.118;2023-05-07T10:20:08;5.70;;;2.90;;
1154;SDS011;566;48.414;9.118;2023-05-07T10:22:45;5.20;;;3.03;;
1154;SDS011;566;48.414;9.118;2023-05-07T10:28:06;6.07;;;3.20;;
1154;SDS011;566;48.414;9.118;2023-05-07T10:33:03;6.05;;;3.10;;
1154;SDS011;566;48.414;9.118;2023-05-07T10:35:32;5.57;;;2.90;;
1154;SDS011;566;48.414;9.118;2023-05-07T10:38:07;7.35;;;2.72;;
1154;SDS011;566;48.414;9.118;2023-05-07T10:40:33;4.80;;;2.80;;
1154;SDS011;566;48.414;9.118;2023-05-07T10:43:00;5.95;;;2.83;;
1154;SDS011;566;48.414;9.118;2023-05-07T10:45:38;7.47;;;3.22;;
1154;SDS011;566;48.414;9.118;2023-05-07T10:48:17;6.68;;;3.35;;
1154;SDS011;566;48.414;9.118;2023-05-07T10:50:43;6.90;;;2.78;;
1154;SDS011;566;48.414;9.118;2023-05-07T10:55:49;6.93;;;2.47;;
1154;SDS011;566;48.414;9.118;2023-05-07T10:58:27;5.25;;;2.63;;
1154;SDS011;566;48.414;9.118;2023-05-07T11:00:57;5.00;;;2.10;;
1154;SDS011;566;48.414;9.118;2023-05-07T11:03:24;5.60;;;2.30;;
1154;SDS011;566;48.414;9.118;2023-05-07T11:06:11;4.60;;;2.20;;
1154;SDS011;566;48.414;9.118;2023-05-07T11:14:42;4.70;;;2.65;;
1154;SDS011;566;48.414;9.118;2023-05-07T11:17:14;5.15;;;2.00;;
1154;SDS011;566;48.414;9.118;2023-05-07T11:19:49;3.78;;;1.70;;
1154;SDS011;566;48.414;9.118;2023-05-07T11:25:02;3.03;;;1.55;;
1154;SDS011;566;48.414;9.118;2023-05-07T11:27:28;3.63;;;1.60;;
1154;SDS011;566;48.414;9.118;2023-05-07T11:29:58;4.18;;;1.70;;
1154;SDS011;566;48.414;9.118;2023-05-07T11:34:53;5.32;;;2.00;;
1154;SDS011;566;48.414;9.118;2023-05-07T11:37:20;4.47;;;1.90;;
1154;SDS011;566;48.414;9.118;2023-05-07T11:39:46;5.40;;;1.75;;
1154;SDS011;566;48.414;9.118;2023-05-07T11:42:25;5.00;;;1.88;;
1154;SDS011;566;48.414;9.118;2023-05-07T11:44:57;4.75;;;1.75;;
1154;SDS011;566;48.414;9.118;2023-05-07T11:47:23;4.90;;;1.80;;
1154;SDS011;566;48.414;9.118;2023-05-07T11:49:52;4.40;;;1.63;;
1154;SDS011;566;48.414;9.118;2023-05-07T11:52:20;4.93;;;2.25;;
1154;SDS011;566;48.414;9.118;2023-05-07T11:54:56;4.68;;;2.08;;
1154;SDS011;566;48.414;9.118;2023-05-07T11:57:26;5.88;;;1.95;;
1154;SDS011;566;48.414;9.118;2023-05-07T11:59:54;3.97;;;1.70;;
1154;SDS011;566;48.414;9.118;2023-05-07T12:02:19;4.93;;;2.00;;
1154;SDS011;566;48.414;9.118;2023-05-07T12:04:45;5.07;;;2.03;;
1154;SDS011;566;48.414;9.118;2023-05-07T12:07:14;4.95;;;1.90;;
1154;SDS011;566;48.414;9.118;2023-05-07T12:09:46;4.47;;;2.10;;
1154;SDS011;566;48.414;9.118;2023-05-07T12:12:13;4.07;;;1.90;;
1154;SDS011;566;48.414;9.118;2023-05-07T12:14:42;4.75;;;2.10;;
1154;SDS011;566;48.414;9.118;2023-05-07T12:17:10;5.70;;;2.30;;
1154;SDS011;566;48.414;9.118;2023-05-07T12:19:36;5.38;;;2.28;;
1154;SDS011;566;48.414;9.118;2023-05-07T12:22:04;4.82;;;2.30;;
1154;SDS011;566;48.414;9.118;2023-05-07T12:24:45;4.45;;;2.17;;
1154;SDS011;566;48.414;9.118;2023-05-07T12:27:13;5.95;;;2.30;;
1154;SDS011;566;48.414;9.118;2023-05-07T12:29:43;6.50;;;2.10;;
1154;SDS011;566;48.414;9.118;2023-05-07T12:32:18;4.47;;;2.08;;
1154;SDS011;566;48.414;9.118;2023-05-07T12:34:46;6.10;;;2.50;;
1154;SDS011;566;48.414;9.118;2023-05-07T12:37:14;5.70;;;2.15;;
1154;SDS011;566;48.414;9.118;2023-05-07T12:42:37;4.13;;;2.33;;
1154;SDS011;566;48.414;9.118;2023-05-07T12:45:10;8.88;;;2.60;;
1154;SDS011;566;48.414;9.118;2023-05-07T12:47:36;6.27;;;2.57;;
1154;SDS011;566;48.414;9.118;2023-05-07T12:50:07;6.03;;;3.90;;
1154;SDS011;566;48.414;9.118;2023-05-07T12:52:33;10.15;;;4.50;;
1154;SDS011;566;48.414;9.118;2023-05-07T12:55:04;7.13;;;3.83;;
1154;SDS011;566;48.414;9.118;2023-05-07T12:57:31;8.75;;;3.80;;
1154;SDS011;566;48.414;9.118;2023-05-07T13:00:12;11.48;;;4.47;;
1154;SDS011;566;48.414;9.118;2023-05-07T13:02:39;9.45;;;4.25;;
1154;SDS011;566;48.414;9.118;2023-05-07T13:05:06;9.68;;;4.22;;
1154;SDS011;566;48.414;9.118;2023-05-07T13:07:32;8.68;;;3.70;;
1154;SDS011;566;48.414;9.118;2023-05-07T13:09:58;10.60;;;4.38;;
1154;SDS011;566;48.414;9.118;2023-05-07T13:12:23;10.20;;;4.80;;
1154;SDS011;566;48.414;9.118;2023-05-07T13:14:49;16.42;;;4.95;;
1154;SDS011;566;48.414;9.118;2023-05-07T13:17:14;10.70;;;5.70;;
1154;SDS011;566;48.414;9.118;2023-05-07T13:19:40;8.65;;;5.10;;
1154;SDS011;566;48.414;9.118;2023-05-07T13:22:06;10.07;;;5.55;;
1154;SDS011;566;48.414;9.118;2023-05-07T13:24:31;8.32;;;4.88;;
1154;SDS011;566;48.414;9.118;2023-05-07T13:26:57;12.30;;;5.53;;
1154;SDS011;566;48.414;9.118;2023-05-07T13:29:22;10.55;;;6.30;;
1154;SDS011;566;48.414;9.118;2023-05-07T13:31:56;10.07;;;5.45;;
1154;SDS011;566;48.414;9.118;2023-05-07T13:34:22;8.98;;;6.15;;
1154;SDS011;566;48.414;9.118;2023-05-07T13:36:47;9.60;;;5.60;;
1154;SDS011;566;48.414;9.118;2023-05-07T13:39:13;15.50;;;5.22;;
1154;SDS011;566;48.414;9.118;2023-05-07T13:41:38;9.70;;;6.28;;
1154;SDS011;566;48.414;9.118;2023-05-07T13:44:04;9.77;;;4.97;;
1154;SDS011;566;48.414;9.118;2023-05-07T13:46:30;10.30;;;5.70;;
1154;SDS011;566;48.414;9.118;2023-05-07T13:48:56;10.73;;;5.55;;
1154;SDS011;566;48.414;9.118;2023-05-07T13:51:21;11.65;;;5.80;;
1154;SDS011;566;48.414;9.118;2023-05-07T13:53:47;17.85;;;7.47;;
1154;SDS011;566;48.414;9.118;2023-05-07T13:56:12;22.88;;;8.75;;
1154;SDS011;566;48.414;9.118;2023-05-07T13:58:39;12.07;;;6.10;;
1154;SDS011;566;48.414;9.118;2023-05-07T14:01:05;7.50;;;4.03;;
1154;SDS011;566;48.414;9.118;2023-05-07T14:03:30;13.05;;;6.03;;
1154;SDS011;566;48.414;9.118;2023-05-07T14:05:58;10.30;;;6.07;;
1154;SDS011;566;48.414;9.118;2023-05-07T14:08:25;9.45;;;5.93;;
1154;SDS011;566;48.414;9.118;2023-05-07T14:10:50;11.25;;;7.30;;
1154;SDS011;566;48.414;9.118;2023-05-07T14:13:16;14.40;;;6.03;;
1154;SDS011;566;48.414;9.118;2023-05-07T14:15:42;11.82;;;5.10;;
1154;SDS011;566;48.414;9.118;2023-05-07T14:18:11;10.15;;;5.85;;
1154;SDS011;566;48.414;9.118;2023-05-07T14:20:40;10.30;;;5.43;;
1154;SDS011;566;48.414;9.118;2023-05-07T14:23:08;7.82;;;4.75;;
1154;SDS011;566;48.414;9.118;2023-05-07T14:25:33;9.60;;;4.63;;
1154;SDS011;566;48.414;9.118;2023-05-07T14:28:05;6.35;;;3.70;;
1154;SDS011;566;48.414;9.118;2023-05-07T14:30:34;10.75;;;4.35;;
1154;SDS011;566;48.414;9.118;2023-05-07T14:33:00;9.73;;;4.13;;
1154;SDS011;566;48.414;9.118;2023-05-07T14:35:25;7.10;;;3.90;;
1154;SDS011;566;48.414;9.118;2023-05-07T14:37:51;8.60;;;4.22;;
1154;SDS011;566;48.414;9.118;2023-05-07T14:40:16;7.30;;;3.78;;
1154;SDS011;566;48.414;9.118;2023-05-07T14:42:42;9.73;;;3.88;;
1154;SDS011;566;48.414;9.118;2023-05-07T14:45:07;9.30;;;3.50;;
1154;SDS011;566;48.414;9.118;2023-05-07T14:47:34;6.13;;;4.15;;
1154;SDS011;566;48.414;9.118;2023-05-07T14:49:59;6.78;;;3.45;;
1154;SDS011;566;48.414;9.118;2023-05-07T14:52:25;8.02;;;4.90;;
1154;SDS011;566;48.414;9.118;2023-05-07T14:54:51;13.93;;;10.00;;
1154;SDS011;566;48.414;9.118;2023-05-07T14:57:17;8.13;;;3.70;;
1154;SDS011;566;48.414;9.118;2023-05-07T14:59:43;9.43;;;5.18;;
1154;SDS011;566;48.414;9.118;2023-05-07T15:02:09;8.20;;;5.15;;
1154;SDS011;566;48.414;9.118;2023-05-07T15:04:39;5.43;;;2.95;;
1154;SDS011;566;48.414;9.118;2023-05-07T15:07:10;6.00;;;2.58;;
1154;SDS011;566;48.414;9.118;2023-05-07T15:09:36;5.82;;;2.40;;
1154;SDS011;566;48.414;9.118;2023-05-07T15:12:02;4.68;;;2.20;;
1154;SDS011;566;48.414;9.118;2023-05-07T15:14:28;6.78;;;2.35;;
1154;SDS011;566;48.414;9.118;2023-05-07T15:16:54;5.80;;;2.75;;
1154;SDS011;566;48.414;9.118;2023-05-07T15:19:22;9.38;;;3.40;;
1154;SDS011;566;48.414;9.118;2023-05-07T15:21:50;5.47;;;2.63;;
1154;SDS011;566;48.414;9.118;2023-05-07T15:24:15;6.28;;;2.85;;
1154;SDS011;566;48.414;9.118;2023-05-07T15:26:41;4.93;;;2.45;;
1154;SDS011;566;48.414;9.118;2023-05-07T15:29:06;6.78;;;2.80;;
1154;SDS011;566;48.414;9.118;2023-05-07T15:31:34;4.95;;;2.30;;
1154;SDS011;566;48.414;9.118;2023-05-07T15:34:02;5.72;;;2.20;;
1154;SDS011;566;48.414;9.118;2023-05-07T15:36:28;7.45;;;3.03;;
1154;SDS011;566;48.414;9.118;2023-05-07T15:38:53;4.43;;;2.45;;
1154;SDS011;566;48.414;9.118;2023-05-07T15:41:19;6.72;;;2.20;;
1154;SDS011;566;48.414;9.118;2023-05-07T15:43:46;6.72;;;2.88;;
1154;SDS011;566;48.414;9.118;2023-05-07T15:46:18;9.65;;;3.70;;
1154;SDS011;566;48.414;9.118;2023-05-07T15:48:45;7.97;;;4.15;;
1154;SDS011;566;48.414;9.118;2023-05-07T15:51:11;7.10;;;3.08;;